Active alerts


No alerts


weather webcam more information weather webcam


Thunder radar more information blitzortung!


Rain radar more information rain snow radar


Visit our other weather sites:

Template documentation
and downloads

And another site


Nearby METAR Reports

   
EBBR - Brussels International Airport, Belgium
Distance from station: W 9 mi
Updated: Jun 26 2019 1:20 pm
Clear  
Clear  
   Wind: NNE 11.5 mph
Wind: NNE 11.5 mph
Temperature: 73.4°F
Dew Point: 62.6°F
Humidity: 69%
Barometer: 30.27 inHg
Visibility: More than 6 mi
Cloud details: Clear
EBBR 261820Z 02010KT CAVOK 23/17 Q1025 NOSIG
EBBE - Beauvechain (Bevekom), Belgium
Distance from station: SSE 10 mi
Updated: Jun 26 2019 1:25 pm
  
  
   Wind: NNE 11.5 mph
Wind: NNE 11.5 mph
Temperature: 73.4°F
Dew Point: 64.4°F
Humidity: 74%
Barometer: 30.27 inHg
Visibility: More than 6 mi
EBBE 261825Z AUTO 02010KT 9999 /// 23/18 Q1025 BLU
EBDT - Schaffen, Belgium
Distance from station: ENE 18 mi
Updated: Jun 26 2019 1:25 pm
Clear  
Clear  
   Wind: North 11.5 mph
Wind: North 11.5 mph
Temperature: 75.2°F
Dew Point: 60.8°F
Humidity: 61%
Barometer: 30.27 inHg
Clouds: Clear
Visibility: More than 6 mi
Cloud details: Clear
EBDT 261825Z AUTO 01010KT 9999 NCD 24/16 Q1025 BLU
EBAW - Antwerp/Deurne, Belgium
Distance from station: NNW 23 mi
Updated: Jun 26 2019 1:20 pm
Clear  
Clear  
   Wind: NNE 10.4 mph
Wind: NNE 10.4 mph
Temperature: 73.4°F
Dew Point: 60.8°F
Humidity: 65%
Barometer: 30.27 inHg
Visibility: More than 6 mi
Cloud details: Clear
EBAW 261820Z 03009KT 350V070 CAVOK 23/16 Q1025 NOSIG
EBCI - Charleroi/Gosselies, Belgium
Distance from station: SSW 32 mi
Updated: Jun 26 2019 1:20 pm
Clear  
Clear  
   Wind: NE 12.7 mph
Wind: NE 12.7 mph
Temperature: 77°F
Dew Point: 66.2°F
Humidity: 69%
Barometer: 30.27 inHg
Visibility: More than 6 mi
Cloud details: Clear
EBCI 261820Z 04011KT CAVOK 25/19 Q1025 NOSIG
EBLG - Bierset/Liege, Belgium
Distance from station: ESE 38 mi
Updated: Jun 26 2019 1:20 pm
Clear  
Clear  
   Wind: NNE 10.4 mph
Wind: NNE 10.4 mph
Temperature: 77°F
Dew Point: 66.2°F
Humidity: 69%
Barometer: 30.24 inHg
Visibility: More than 6 mi
Cloud details: Clear
EBLG 261820Z 02009KT CAVOK 25/19 Q1024 NOSIG

Script developed by  Saratoga-weather.org Adapted for the template by  Weerstation Leuven

You find our weather info also at:

Weather Underground

Midwestern Weather Network

Citizen Weather Observer Program (CWOP)

HAMweather, WeatherForYou, PWS Weather

Equipment we use:

Weather-station
Davis VP2

Weather-program
Cumulus

Davis VP2

Cumulus